createdAt,value
2023-05-18T03:15:40.809Z,76.52
2023-05-18T03:17:06.066Z,76.56
2023-05-18T03:18:28.382Z,76.44
2023-05-18T03:19:51.590Z,76.28
2023-05-18T03:21:13.890Z,76.35
2023-05-18T03:22:36.149Z,76.09
2023-05-18T03:23:57.118Z,76.04
2023-05-18T03:25:19.792Z,76.03
2023-05-18T03:26:44.360Z,75.81
2023-05-18T03:28:07.196Z,75.96
2023-05-18T03:29:31.496Z,75.75
2023-05-18T03:30:59.432Z,75.66
2023-05-18T03:32:21.278Z,75.86
2023-05-18T03:33:43.538Z,75.47
2023-05-18T03:35:06.461Z,75.45
2023-05-18T03:36:29.362Z,75.28
2023-05-18T03:37:50.586Z,75.25
2023-05-18T03:39:13.220Z,74.98
2023-05-18T03:40:34.856Z,74.85
2023-05-18T03:41:57.347Z,74.85
2023-05-18T03:43:19.880Z,74.89
2023-05-18T03:44:41.575Z,74.67
2023-05-18T03:46:06.409Z,74.48
2023-05-18T03:47:27.505Z,74.56
2023-05-18T03:48:50.067Z,74.47
2023-05-18T03:50:16.820Z,74.16
2023-05-18T03:51:38.755Z,74.16
2023-05-18T03:53:01.299Z,74.12
2023-05-18T03:54:22.591Z,73.91
2023-05-18T03:55:47.100Z,73.95
2023-05-18T03:57:08.200Z,73.92
2023-05-18T03:58:30.310Z,73.53
2023-05-18T03:59:52.874Z,73.46
2023-05-18T04:01:19.043Z,73.68
2023-05-18T04:02:40.761Z,73.58
2023-05-18T04:04:03.228Z,73.37
2023-05-18T04:05:24.518Z,73.58
2023-05-18T04:06:47.333Z,73.37
2023-05-18T04:08:09.010Z,73.18
2023-05-18T04:09:33.975Z,73.19
2023-05-18T04:10:55.153Z,73.06
2023-05-18T04:12:17.145Z,72.94
2023-05-18T04:13:42.091Z,72.54
2023-05-18T04:15:04.605Z,72.47
2023-05-18T04:16:29.257Z,72.40
2023-05-18T04:17:53.967Z,72.19
2023-05-18T04:19:16.309Z,72.20
2023-05-18T04:20:38.276Z,72.19
2023-05-18T04:22:00.198Z,72.18
2023-05-18T04:23:21.556Z,72.17
2023-05-18T04:24:45.864Z,72.12
2023-05-18T04:26:09.204Z,72.23
2023-05-18T04:27:30.888Z,72.03
2023-05-18T04:28:53.348Z,72.09
2023-05-18T04:30:14.661Z,71.88
2023-05-18T04:31:46.480Z,71.59
2023-05-18T04:33:08.798Z,71.80
2023-05-18T04:34:31.506Z,71.92
2023-05-18T04:37:33.539Z,71.57
2023-05-18T04:39:26.016Z,71.78
2023-05-18T04:40:50.273Z,71.90
2023-05-18T04:42:14.753Z,71.99
2023-05-18T04:43:38.549Z,71.59
2023-05-18T04:45:00.446Z,71.40
2023-05-18T04:46:24.142Z,71.29
2023-05-18T04:47:53.918Z,71.04
2023-05-18T04:49:16.272Z,70.93
2023-05-18T04:50:42.242Z,70.90
2023-05-18T04:52:06.760Z,70.72
2023-05-18T04:53:28.869Z,70.50
2023-05-18T04:54:50.040Z,70.41
2023-05-18T04:56:13.882Z,70.36
2023-05-18T04:57:35.197Z,70.21
2023-05-18T04:59:02.338Z,69.88
2023-05-18T05:00:26.441Z,70.09
2023-05-18T05:01:49.298Z,69.74
2023-05-18T05:03:11.970Z,69.65
2023-05-18T05:04:38.429Z,69.29
2023-05-18T05:05:59.933Z,69.12
2023-05-18T05:07:21.954Z,69.00
2023-05-18T05:08:44.321Z,68.76
2023-05-18T05:10:08.214Z,68.54
2023-05-18T05:11:29.652Z,68.43
2023-05-18T05:12:53.459Z,68.42
2023-05-18T05:14:14.259Z,68.19
2023-05-18T05:15:37.472Z,67.72
2023-05-18T05:16:58.711Z,67.63
2023-05-18T05:18:22.478Z,67.80
2023-05-18T05:19:44.798Z,67.76
2023-05-18T05:21:07.530Z,67.54
2023-05-18T05:22:29.423Z,67.49
2023-05-18T05:23:55.134Z,67.54
2023-05-18T05:25:19.144Z,67.53
2023-05-18T05:26:41.465Z,67.18
2023-05-18T05:28:03.855Z,67.13
2023-05-18T05:29:26.588Z,66.95
2023-05-18T05:30:51.795Z,66.95
2023-05-18T05:32:13.453Z,66.87
2023-05-18T05:33:40.101Z,66.73
2023-05-18T05:35:02.464Z,66.62
2023-05-18T05:36:23.762Z,66.59
2023-05-18T05:37:47.349Z,66.35
2023-05-18T05:39:09.807Z,66.12
2023-05-18T05:40:39.799Z,65.86
2023-05-18T05:42:01.489Z,65.97
2023-05-18T05:43:23.758Z,65.51
2023-05-18T05:44:45.034Z,65.36
2023-05-18T05:46:07.334Z,65.25
2023-05-18T05:47:42.651Z,65.32
2023-05-18T05:49:07.419Z,64.83
2023-05-18T05:50:30.116Z,64.45
2023-05-18T05:51:58.089Z,64.20
2023-05-18T05:53:23.634Z,64.00
2023-05-18T05:54:46.242Z,63.52
2023-05-18T05:56:08.586Z,63.14
2023-05-18T05:57:34.169Z,63.01
2023-05-18T05:58:58.692Z,62.83
2023-05-18T06:00:27.760Z,62.36
2023-05-18T06:01:55.615Z,62.26
2023-05-18T06:03:18.005Z,61.69
2023-05-18T06:04:48.170Z,60.87
2023-05-18T06:06:12.216Z,61.49
2023-05-18T06:07:34.806Z,61.14
2023-05-18T06:08:57.223Z,60.69
2023-05-18T06:10:19.199Z,60.34
2023-05-18T06:11:41.625Z,59.98
2023-05-18T06:13:05.650Z,59.49
2023-05-18T06:14:38.095Z,58.96
2023-05-18T06:16:00.423Z,58.35
2023-05-18T06:17:33.227Z,58.51
2023-05-18T06:18:55.238Z,58.36
2023-05-18T06:20:21.840Z,58.25
2023-05-18T06:21:44.266Z,57.62
2023-05-18T06:23:06.208Z,57.47
2023-05-18T06:24:39.202Z,59.22
2023-05-18T06:26:22.269Z,60.25
2023-05-18T06:28:00.864Z,59.67
2023-05-18T06:29:45.263Z,59.53
2023-05-18T06:31:30.488Z,59.27
2023-05-18T06:33:09.558Z,58.64
2023-05-18T06:34:32.506Z,57.90
2023-05-18T06:35:56.202Z,57.43
2023-05-18T06:37:18.220Z,56.80
2023-05-18T06:38:40.958Z,56.63
2023-05-18T06:40:03.812Z,56.33
2023-05-18T06:41:27.010Z,56.14
2023-05-18T06:43:18.649Z,54.58
2023-05-18T06:45:06.586Z,56.68
2023-05-18T06:46:46.152Z,56.82
2023-05-18T06:48:15.590Z,56.33
2023-05-18T06:49:40.390Z,55.89
2023-05-18T06:51:11.376Z,55.24
2023-05-18T06:52:33.271Z,55.40
2023-05-18T06:53:55.469Z,55.30
2023-05-18T06:55:18.636Z,54.67
2023-05-18T06:56:42.065Z,54.46
2023-05-18T06:58:06.336Z,53.92
2023-05-18T06:59:29.015Z,53.70
2023-05-18T07:00:51.340Z,53.10
2023-05-18T07:02:13.827Z,53.18
2023-05-18T07:03:37.696Z,52.91
2023-05-18T07:05:01.461Z,53.03
2023-05-18T07:06:25.551Z,52.75
2023-05-18T07:07:47.918Z,52.75
2023-05-18T07:09:10.218Z,52.84
2023-05-18T07:10:32.635Z,52.93
2023-05-18T07:11:54.829Z,52.51
2023-05-18T07:13:17.055Z,52.58
2023-05-18T07:14:39.161Z,52.66
2023-05-18T07:16:01.347Z,52.32
2023-05-18T07:17:24.213Z,51.89
2023-05-18T07:18:46.582Z,51.82
2023-05-18T07:20:10.363Z,51.95
2023-05-18T07:21:33.063Z,51.70
2023-05-18T07:22:56.300Z,51.37
2023-05-18T07:24:18.964Z,51.35
2023-05-18T07:25:41.369Z,50.77
2023-05-18T07:27:04.161Z,50.67
2023-05-18T07:28:26.522Z,49.93
2023-05-18T07:29:48.597Z,49.77
2023-05-18T07:31:10.814Z,49.25
2023-05-18T07:32:33.264Z,49.31
2023-05-18T07:33:55.670Z,48.67
2023-05-18T07:35:19.642Z,48.07
2023-05-18T07:36:43.167Z,47.78
2023-05-18T07:38:04.295Z,47.43
2023-05-18T07:39:29.542Z,47.66
2023-05-18T07:40:51.757Z,47.22
2023-05-18T07:42:19.473Z,47.27
2023-05-18T07:43:43.717Z,46.36
2023-05-18T07:45:05.618Z,46.07
2023-05-18T07:46:32.791Z,48.10
2023-05-18T07:47:55.613Z,48.02
2023-05-18T07:49:17.908Z,46.87
2023-05-18T07:50:40.337Z,45.31
2023-05-18T07:52:04.150Z,44.41
2023-05-18T07:53:28.877Z,43.47
2023-05-18T07:54:51.267Z,43.15
2023-05-18T07:56:15.398Z,42.32
2023-05-18T07:57:37.700Z,41.61
2023-05-18T07:59:02.957Z,40.00
2023-05-18T08:00:28.235Z,39.69
2023-05-18T08:01:50.467Z,38.61
2023-05-18T08:03:12.770Z,38.18
2023-05-18T08:04:37.318Z,38.10
2023-05-18T08:06:01.974Z,37.73
2023-05-18T08:07:30.194Z,36.27
2023-05-18T08:08:52.408Z,37.04
2023-05-18T08:10:14.462Z,36.33
2023-05-18T08:11:36.566Z,36.21
2023-05-18T08:12:58.588Z,35.33
2023-05-18T08:14:21.052Z,35.06
2023-05-18T08:15:50.903Z,34.45
2023-05-18T08:17:19.773Z,33.86
2023-05-18T08:18:43.817Z,32.49
2023-05-18T08:20:08.455Z,30.32
2023-05-18T08:21:30.977Z,29.80
2023-05-18T08:22:54.718Z,28.50
2023-05-18T08:24:17.256Z,29.11
2023-05-18T08:25:45.334Z,28.91
2023-05-18T08:27:10.081Z,28.95
2023-05-18T08:28:41.807Z,27.01
2023-05-18T08:30:06.277Z,27.08
2023-05-18T08:31:28.535Z,24.83
2023-05-18T08:32:52.705Z,23.17
2023-05-18T08:34:20.557Z,22.60
2023-05-18T08:36:07.993Z,21.79
2023-05-18T08:37:31.380Z,22.93
2023-05-18T08:38:55.389Z,21.26
2023-05-18T08:41:50.784Z,20.54
2023-05-18T08:43:23.450Z,22.44
2023-05-18T08:44:51.732Z,20.79
2023-05-18T08:46:21.923Z,19.84
2023-05-18T08:47:44.884Z,20.93
2023-05-18T08:49:07.862Z,20.27
2023-05-18T08:50:33.511Z,18.67
2023-05-18T08:51:58.564Z,17.89
2023-05-18T08:53:27.597Z,18.92
2023-05-18T08:54:54.921Z,17.46
2023-05-18T08:56:18.713Z,16.79
2023-05-18T08:57:45.059Z,15.88
2023-05-18T08:59:10.638Z,15.30
2023-05-18T09:00:34.886Z,14.33
2023-05-18T09:01:58.918Z,14.75
2023-05-18T09:03:26.195Z,14.95
2023-05-18T09:04:59.335Z,15.14
2023-05-18T09:06:28.820Z,16.04
2023-05-18T09:08:11.723Z,16.20
2023-05-18T09:09:38.856Z,17.67
2023-05-18T09:11:14.000Z,16.68
2023-05-18T09:13:05.344Z,16.36
2023-05-18T09:14:50.299Z,23.02
2023-05-18T09:16:16.325Z,21.77
2023-05-18T09:18:10.686Z,20.25
2023-05-18T09:20:02.454Z,21.06
2023-05-18T09:21:25.684Z,21.76
2023-05-18T09:26:05.287Z,24.23
2023-05-18T09:28:47.807Z,23.53
2023-05-18T09:30:29.164Z,24.88
2023-05-18T09:31:52.149Z,24.22
2023-05-18T09:33:19.276Z,22.50
2023-05-18T09:34:46.501Z,22.93
2023-05-18T09:36:29.475Z,23.38
2023-05-18T09:37:52.605Z,23.80
2023-05-18T09:39:37.279Z,22.91
2023-05-18T09:41:05.037Z,23.25
2023-05-18T09:42:37.967Z,22.97
2023-05-18T09:44:05.274Z,23.39
2023-05-18T09:45:28.857Z,23.23
2023-05-18T09:47:02.300Z,21.40
2023-05-18T09:48:25.569Z,20.60
2023-05-18T09:49:49.369Z,19.78
2023-05-18T09:51:17.023Z,18.75
2023-05-18T09:53:10.910Z,18.83
2023-05-18T09:54:34.673Z,18.31
2023-05-18T09:55:58.597Z,17.12
2023-05-18T09:57:23.789Z,15.75
2023-05-18T09:58:49.797Z,15.90
2023-05-18T10:00:17.245Z,16.66
2023-05-18T10:01:41.730Z,17.48
2023-05-18T10:03:06.479Z,17.02
2023-05-18T10:04:41.324Z,16.59
2023-05-18T10:06:07.029Z,16.59
2023-05-18T10:07:29.166Z,17.17
2023-05-18T10:08:53.918Z,16.92
2023-05-18T10:10:20.311Z,17.31
2023-05-18T10:11:44.802Z,17.68
2023-05-18T10:13:59.259Z,17.16
2023-05-18T10:15:23.973Z,20.48
2023-05-18T10:16:46.564Z,19.50
2023-05-18T10:18:09.738Z,18.67
2023-05-18T10:19:37.249Z,19.12
2023-05-18T10:21:01.724Z,19.41
2023-05-18T10:22:24.831Z,18.93
2023-05-18T10:23:49.801Z,19.15
2023-05-18T10:25:13.686Z,20.17
2023-05-18T10:26:45.723Z,20.49
2023-05-18T10:28:09.164Z,21.75
2023-05-18T10:29:38.037Z,21.73
2023-05-18T10:31:01.774Z,21.49
2023-05-18T10:32:26.942Z,21.05
2023-05-18T10:33:53.277Z,20.83
2023-05-18T10:35:19.585Z,21.33
2023-05-18T10:36:43.104Z,19.77
2023-05-18T10:38:07.589Z,18.99
2023-05-18T10:39:35.122Z,19.56
2023-05-18T10:41:00.430Z,19.90
2023-05-18T10:42:27.912Z,19.98
2023-05-18T10:43:51.245Z,20.08
2023-05-18T10:45:17.513Z,19.67
2023-05-18T10:47:22.579Z,20.87
2023-05-18T10:48:52.071Z,21.20
2023-05-18T10:50:15.344Z,21.28
2023-05-18T10:51:39.222Z,21.54
2023-05-18T10:53:02.198Z,21.41
2023-05-18T10:54:25.671Z,21.67
2023-05-18T10:55:49.886Z,22.25
2023-05-18T10:57:43.454Z,22.15
2023-05-18T10:59:10.540Z,23.56
2023-05-18T11:00:38.545Z,23.83
2023-05-18T11:02:03.687Z,24.42
2023-05-18T11:03:27.300Z,24.34
2023-05-18T11:04:53.392Z,24.92
2023-05-18T11:06:24.899Z,25.50
2023-05-18T11:07:47.707Z,26.07
2023-05-18T11:09:12.970Z,26.31
2023-05-18T11:10:37.355Z,27.02
2023-05-18T11:12:00.680Z,27.14
2023-05-18T11:13:32.252Z,27.08
2023-05-18T11:15:03.477Z,28.75
2023-05-18T11:16:53.296Z,29.26
2023-05-18T11:18:15.668Z,30.48
2023-05-18T11:20:19.115Z,30.65
2023-05-18T11:21:56.107Z,31.69
2023-05-18T11:23:29.350Z,31.94
2023-05-18T11:24:57.206Z,32.70
2023-05-18T11:26:19.412Z,33.00
2023-05-18T11:27:48.211Z,33.42
2023-05-18T11:29:22.394Z,33.61
2023-05-18T11:30:52.753Z,33.90
2023-05-18T11:32:30.437Z,34.08
2023-05-18T11:33:53.594Z,34.75
2023-05-18T11:35:25.039Z,34.58
2023-05-18T11:36:47.544Z,35.42
2023-05-18T11:38:09.892Z,35.60
2023-05-18T11:39:34.802Z,36.27
2023-05-18T11:41:01.106Z,36.62
2023-05-18T11:42:24.385Z,37.18
2023-05-18T11:43:46.081Z,37.49
2023-05-18T11:45:09.848Z,37.33
2023-05-18T11:46:31.118Z,37.67
2023-05-18T11:47:58.611Z,37.54
2023-05-18T11:49:22.444Z,37.70
2023-05-18T11:50:51.602Z,37.65
2023-05-18T11:52:21.412Z,37.46
2023-05-18T11:53:42.668Z,37.95
2023-05-18T11:55:07.664Z,37.57
2023-05-18T11:56:33.857Z,37.40
2023-05-18T11:57:56.370Z,37.59
2023-05-18T11:59:20.530Z,37.87
2023-05-18T12:00:59.023Z,38.22
2023-05-18T12:15:27.820Z,44.23
2023-05-18T12:19:09.374Z,44.02
2023-05-18T12:20:45.045Z,42.96
2023-05-18T12:22:12.395Z,42.75
2023-05-18T12:23:39.936Z,42.78
2023-05-18T12:25:02.325Z,42.94
2023-05-18T12:26:26.103Z,43.00
2023-05-18T12:28:05.016Z,42.82
2023-05-18T12:29:27.570Z,43.44
2023-05-18T12:30:50.204Z,43.37
2023-05-18T12:32:14.618Z,42.89
2023-05-18T12:33:37.119Z,42.83
2023-05-18T12:35:06.035Z,42.49
2023-05-18T12:36:28.502Z,42.56
2023-05-18T12:37:51.700Z,42.36
2023-05-18T12:39:21.068Z,42.54
2023-05-18T12:40:48.891Z,43.23
2023-05-18T12:42:13.524Z,43.03
2023-05-18T12:43:36.115Z,43.10
2023-05-18T12:44:58.455Z,43.17
2023-05-18T12:46:24.969Z,43.22
2023-05-18T12:47:47.606Z,42.99
2023-05-18T12:49:09.910Z,43.07
2023-05-18T12:50:32.549Z,43.38
2023-05-18T13:00:22.529Z,45.10
2023-05-18T13:01:45.221Z,44.59
2023-05-18T13:03:14.872Z,43.75
2023-05-18T13:04:46.261Z,43.42
2023-05-18T13:06:14.168Z,43.12
2023-05-18T13:07:40.804Z,43.29
2023-05-18T13:09:03.289Z,43.20
2023-05-18T13:10:24.894Z,43.98
2023-05-18T13:12:06.344Z,44.92
2023-05-18T13:15:24.857Z,44.36
2023-05-18T13:17:09.937Z,43.84
2023-05-18T13:18:50.446Z,43.81
2023-05-18T13:20:42.072Z,43.32
2023-05-18T13:22:07.718Z,43.91
2023-05-18T13:23:53.782Z,43.48
2023-05-18T13:25:34.292Z,43.87
2023-05-18T13:26:56.382Z,44.00
2023-05-18T13:28:21.851Z,43.58
2023-05-18T13:29:46.406Z,43.69
2023-05-18T13:31:11.579Z,42.96
2023-05-18T13:32:35.430Z,43.15
2023-05-18T13:33:57.646Z,42.89
2023-05-18T13:35:18.818Z,42.75
2023-05-18T13:36:41.202Z,42.89
2023-05-18T13:38:03.422Z,42.52
2023-05-18T13:39:25.650Z,42.33
2023-05-18T13:40:47.795Z,42.35
2023-05-18T13:42:08.940Z,42.37
2023-05-18T13:43:31.301Z,42.48
2023-05-18T13:44:53.740Z,42.56
2023-05-18T13:46:18.959Z,42.68
2023-05-18T13:47:41.444Z,42.58
2023-05-18T13:49:03.724Z,42.65
2023-05-18T13:50:27.342Z,42.43
2023-05-18T13:51:49.953Z,42.27
2023-05-18T13:53:12.334Z,42.01
2023-05-18T13:54:33.875Z,42.59
2023-05-18T13:55:56.353Z,43.89
2023-05-18T13:57:18.663Z,43.40
2023-05-18T13:58:42.048Z,42.80
2023-05-18T14:00:07.215Z,42.70
2023-05-18T14:01:38.403Z,42.47
2023-05-18T14:03:00.881Z,42.32
2023-05-18T14:04:22.905Z,42.28
2023-05-18T14:05:45.277Z,42.02
2023-05-18T14:07:08.055Z,42.04
2023-05-18T14:08:30.504Z,42.09
2023-05-18T14:09:54.346Z,42.19
2023-05-18T14:11:18.670Z,42.51
2023-05-18T14:12:42.787Z,42.45
2023-05-18T14:14:05.196Z,42.39
2023-05-18T14:15:30.885Z,42.69
2023-05-18T14:16:55.238Z,42.64
2023-05-18T14:18:17.869Z,42.59
2023-05-18T14:19:40.170Z,42.82
2023-05-18T14:21:02.463Z,42.46
2023-05-18T14:22:26.437Z,42.46
2023-05-18T14:23:49.004Z,42.72
2023-05-18T14:25:10.684Z,42.63
2023-05-18T14:26:32.929Z,43.38
2023-05-18T14:27:55.166Z,44.93
2023-05-18T14:29:17.241Z,44.26
2023-05-18T14:30:39.455Z,43.23
2023-05-18T14:32:01.903Z,43.12
2023-05-18T14:33:24.219Z,43.04
2023-05-18T14:34:52.172Z,42.92
2023-05-18T14:36:14.259Z,43.15
2023-05-18T14:37:37.007Z,43.14
2023-05-18T14:38:59.335Z,42.67
2023-05-18T14:40:21.676Z,42.61
2023-05-18T14:41:48.187Z,42.54
2023-05-18T14:43:10.271Z,42.49
2023-05-18T14:44:32.260Z,42.32
2023-05-18T14:46:07.354Z,41.81
2023-05-18T14:47:31.900Z,42.10
2023-05-18T14:48:54.230Z,41.91
2023-05-18T14:50:16.725Z,41.74
2023-05-18T14:51:38.199Z,42.07
2023-05-18T14:53:00.557Z,41.80
2023-05-18T14:54:22.578Z,41.31
2023-05-18T14:55:45.156Z,40.97
2023-05-18T14:57:10.310Z,40.98
2023-05-18T14:58:32.380Z,40.96
2023-05-18T14:59:55.328Z,40.90
2023-05-18T15:01:19.779Z,41.34
2023-05-18T15:02:46.754Z,41.07
2023-05-18T15:04:10.799Z,41.57
2023-05-18T15:05:33.142Z,41.47
2023-05-18T15:06:55.075Z,41.77
2023-05-18T15:08:17.629Z,41.55
2023-05-18T15:09:40.162Z,41.57
2023-05-18T15:11:02.056Z,41.51
2023-05-18T15:12:27.983Z,41.57
2023-05-18T15:13:50.571Z,41.89
2023-05-18T15:15:13.040Z,41.83
2023-05-18T15:16:35.361Z,42.13
2023-05-18T15:18:02.311Z,41.96
2023-05-18T15:19:30.460Z,41.42
2023-05-18T15:20:55.441Z,41.78
2023-05-18T15:22:17.926Z,41.66
2023-05-18T15:23:40.082Z,41.89
2023-05-18T15:25:07.763Z,41.81
2023-05-18T15:26:29.862Z,41.92
2023-05-18T15:27:53.090Z,41.82
2023-05-18T15:29:15.275Z,41.53
2023-05-18T15:30:37.673Z,41.80
2023-05-18T15:31:59.849Z,41.58
2023-05-18T15:33:31.378Z,41.28
2023-05-18T15:34:57.548Z,41.79
2023-05-18T15:37:58.448Z,42.46
2023-05-18T15:39:27.844Z,42.38
2023-05-18T15:40:59.185Z,42.15
2023-05-18T15:42:24.073Z,42.43
2023-05-18T15:43:51.969Z,42.42
2023-05-18T15:45:17.390Z,42.25
2023-05-18T15:46:39.430Z,42.20
2023-05-18T15:48:01.754Z,41.96
2023-05-18T15:49:25.694Z,41.48
2023-05-18T15:50:46.718Z,41.70
2023-05-18T15:52:12.402Z,41.78
2023-05-18T15:53:34.791Z,42.10
2023-05-18T15:54:59.900Z,42.16
2023-05-18T15:56:22.337Z,42.35
2023-05-18T15:57:44.625Z,42.11
2023-05-18T15:59:08.477Z,42.27
2023-05-18T16:00:33.540Z,42.57
2023-05-18T16:01:56.156Z,42.02
2023-05-18T16:03:19.313Z,42.07
2023-05-18T16:04:41.831Z,42.20
2023-05-18T16:06:03.884Z,42.53
2023-05-18T16:07:26.572Z,42.68
2023-05-18T16:08:48.513Z,42.52
2023-05-18T16:10:12.855Z,42.45
2023-05-18T16:11:36.213Z,42.88
2023-05-18T16:13:04.610Z,42.74
2023-05-18T16:14:32.878Z,43.19
2023-05-18T16:15:54.959Z,43.47
2023-05-18T16:17:17.385Z,43.10
2023-05-18T16:18:38.748Z,43.15
2023-05-18T16:20:04.893Z,43.18
2023-05-18T16:21:27.133Z,43.33
2023-05-18T16:22:53.728Z,43.48
2023-05-18T16:24:27.204Z,43.58
2023-05-18T16:25:49.603Z,43.81
2023-05-18T16:27:11.682Z,43.78
2023-05-18T16:28:33.951Z,43.74
2023-05-18T16:29:58.800Z,43.81
2023-05-18T16:31:21.225Z,44.07
2023-05-18T16:32:44.715Z,43.98
2023-05-18T16:34:06.856Z,44.14
2023-05-18T16:35:47.073Z,43.86
2023-05-18T16:37:20.170Z,44.75
2023-05-18T16:38:42.509Z,44.95
2023-05-18T16:40:05.712Z,44.87
2023-05-18T16:41:30.845Z,44.98
2023-05-18T16:43:11.293Z,45.13
2023-05-18T16:49:47.071Z,48.21
2023-05-18T16:51:50.085Z,47.34
2023-05-18T16:53:25.635Z,48.10
2023-05-18T16:55:08.359Z,47.54
2023-05-18T16:59:52.477Z,49.14
2023-05-18T17:02:45.896Z,48.29
2023-05-18T17:12:05.987Z,51.30
2023-05-18T17:13:38.437Z,51.17
2023-05-18T17:16:43.250Z,51.34
2023-05-18T17:18:06.254Z,51.58
2023-05-18T17:19:28.528Z,50.62
2023-05-18T17:20:51.078Z,50.09
2023-05-18T17:22:13.622Z,49.83
2023-05-18T17:23:35.756Z,49.13
2023-05-18T17:24:59.860Z,49.00
2023-05-18T17:26:22.404Z,48.75
2023-05-18T17:27:44.765Z,48.69
2023-05-18T17:29:09.768Z,48.48
2023-05-18T17:31:14.839Z,48.11
2023-05-18T17:32:40.900Z,49.21
2023-05-18T17:34:03.156Z,48.81
2023-05-18T17:35:31.864Z,48.36
2023-05-18T17:37:02.702Z,48.45
2023-05-18T17:38:25.253Z,48.47
2023-05-18T17:39:49.260Z,48.39
2023-05-18T17:41:11.755Z,48.17
2023-05-18T17:42:34.069Z,48.08
2023-05-18T17:43:56.702Z,48.26
2023-05-18T17:45:37.741Z,48.27
2023-05-18T17:47:03.054Z,48.80
2023-05-18T17:48:35.131Z,48.47
2023-05-18T17:50:00.133Z,48.88
2023-05-18T17:58:28.927Z,51.35
2023-05-18T18:00:52.920Z,51.76
2023-05-18T18:03:25.921Z,51.82
2023-05-18T18:04:55.131Z,52.36
2023-05-18T18:06:47.047Z,51.99
2023-05-18T18:08:38.109Z,51.80
2023-05-18T18:10:38.886Z,51.70
2023-05-18T18:15:03.170Z,52.52
2023-05-18T18:18:39.415Z,52.20
2023-05-18T18:20:08.733Z,51.71
2023-05-18T18:22:08.455Z,51.47
2023-05-18T18:23:34.512Z,51.45
2023-05-18T18:24:58.417Z,51.22
2023-05-18T18:26:27.408Z,51.07
2023-05-18T18:28:25.478Z,50.91
2023-05-18T18:29:53.071Z,51.22
2023-05-18T18:31:21.514Z,50.69
2023-05-18T18:32:52.937Z,50.71
2023-05-18T18:34:31.976Z,50.95
2023-05-18T18:35:59.392Z,50.85
2023-05-18T18:37:24.240Z,50.64
2023-05-18T18:38:47.017Z,50.58
2023-05-18T18:40:17.413Z,50.29
2023-05-18T18:41:39.510Z,50.28
2023-05-18T18:43:03.253Z,50.07
2023-05-18T18:44:28.205Z,50.17
2023-05-18T18:45:50.784Z,50.05
2023-05-18T18:47:12.242Z,49.82
2023-05-18T18:49:06.863Z,50.10
2023-05-18T18:50:31.294Z,50.14
2023-05-18T18:52:13.106Z,49.99
2023-05-18T18:53:44.353Z,49.99
2023-05-18T18:55:10.502Z,50.18
2023-05-18T18:56:33.107Z,50.05
2023-05-18T18:57:55.784Z,50.10
2023-05-18T18:59:17.991Z,50.12
2023-05-18T19:00:39.936Z,50.29
2023-05-18T19:02:02.270Z,50.23
2023-05-18T19:03:24.449Z,50.16
2023-05-18T19:04:46.944Z,50.14
2023-05-18T19:06:09.512Z,50.27
2023-05-18T19:07:33.970Z,50.48
2023-05-18T19:09:01.232Z,50.46
2023-05-18T19:10:48.574Z,50.85
2023-05-18T19:12:11.193Z,51.12
2023-05-18T19:13:33.299Z,51.08
2023-05-18T19:14:58.893Z,51.20
2023-05-18T19:16:21.739Z,51.25
2023-05-18T19:17:48.391Z,51.38
2023-05-18T19:19:10.968Z,51.71
2023-05-18T19:20:33.040Z,51.78
2023-05-18T19:21:54.700Z,52.19
2023-05-18T19:23:18.547Z,52.59
2023-05-18T19:24:41.356Z,52.46
2023-05-18T19:26:03.285Z,52.60
2023-05-18T19:27:27.777Z,52.54
2023-05-18T19:28:50.335Z,52.66
2023-05-18T19:30:19.156Z,52.46
2023-05-18T19:31:43.140Z,52.55
2023-05-18T19:33:05.403Z,52.38
2023-05-18T19:34:28.934Z,52.58
2023-05-18T19:35:51.783Z,52.76
2023-05-18T19:37:15.122Z,52.80
2023-05-18T19:38:38.617Z,53.03
2023-05-18T19:39:59.719Z,53.10
2023-05-18T19:41:24.408Z,53.13
2023-05-18T19:42:45.881Z,53.14
2023-05-18T19:44:08.214Z,53.29
2023-05-18T19:45:32.225Z,53.29
2023-05-18T19:46:54.973Z,53.47
2023-05-18T19:48:27.872Z,53.66
2023-05-18T19:49:52.972Z,53.70
2023-05-18T19:51:15.281Z,53.67
2023-05-18T19:52:37.887Z,53.57
2023-05-18T19:54:01.593Z,53.89
2023-05-18T19:55:23.937Z,53.77
2023-05-18T19:56:46.080Z,53.89
2023-05-18T19:58:08.531Z,53.96
2023-05-18T19:59:30.955Z,54.26
2023-05-18T20:00:54.867Z,54.26
2023-05-18T20:02:17.005Z,54.21
2023-05-18T20:03:43.732Z,54.48
2023-05-18T20:05:07.317Z,54.45
2023-05-18T20:06:49.357Z,54.41
2023-05-18T20:08:15.297Z,54.85
2023-05-18T20:09:40.506Z,54.96
2023-05-18T20:11:07.291Z,54.71
2023-05-18T20:12:38.081Z,54.81
2023-05-18T20:14:01.470Z,55.02
2023-05-18T20:15:24.102Z,55.19
2023-05-18T20:16:46.455Z,55.17
2023-05-18T20:18:09.078Z,55.20
2023-05-18T20:19:31.559Z,55.24
2023-05-18T20:21:00.101Z,55.16
2023-05-18T20:22:22.459Z,55.58
2023-05-18T20:23:47.433Z,55.43
2023-05-18T20:25:12.578Z,55.75
2023-05-18T20:26:34.957Z,55.77
2023-05-18T20:28:00.928Z,56.15
2023-05-18T20:29:23.322Z,56.05
2023-05-18T20:30:44.518Z,56.18
2023-05-18T20:32:07.736Z,56.26
2023-05-18T20:33:30.491Z,56.38
2023-05-18T20:34:58.456Z,56.42
2023-05-18T20:36:23.247Z,56.62
2023-05-18T20:37:45.663Z,56.86
2023-05-18T20:39:07.499Z,56.98
2023-05-18T20:40:32.220Z,57.26
2023-05-18T20:41:55.039Z,57.28
2023-05-18T20:43:21.440Z,57.23
2023-05-18T20:44:46.383Z,57.46
2023-05-18T20:46:08.253Z,57.50
2023-05-18T20:47:32.031Z,57.48
2023-05-18T20:48:55.467Z,57.52
2023-05-18T20:50:18.506Z,57.32
2023-05-18T20:51:40.725Z,57.32
2023-05-18T20:53:05.671Z,57.41
2023-05-18T20:54:27.225Z,57.69
2023-05-18T20:55:51.231Z,57.53
2023-05-18T20:57:13.720Z,57.63
2023-05-18T20:58:42.671Z,57.67
2023-05-18T21:00:05.518Z,57.85
2023-05-18T21:01:28.962Z,57.75
2023-05-18T21:02:52.343Z,58.00
2023-05-18T21:04:14.553Z,58.06
2023-05-18T21:05:38.203Z,57.86
2023-05-18T21:07:01.398Z,57.99
2023-05-18T21:08:23.815Z,58.18
2023-05-18T21:09:46.156Z,57.93
2023-05-18T21:11:11.619Z,58.16
2023-05-18T21:12:33.541Z,58.35
2023-05-18T21:13:56.243Z,58.34
2023-05-18T21:15:18.612Z,58.53
2023-05-18T21:16:48.286Z,58.44
2023-05-18T21:18:10.903Z,58.53
2023-05-18T21:19:32.133Z,58.47
2023-05-18T21:20:57.467Z,58.64
2023-05-18T21:22:20.973Z,58.61
2023-05-18T21:23:43.105Z,58.35
2023-05-18T21:25:06.385Z,58.15
2023-05-18T21:26:30.033Z,58.55
2023-05-18T21:27:51.676Z,58.69
2023-05-18T21:29:13.940Z,58.66
2023-05-18T21:30:36.967Z,58.86
2023-05-18T21:31:59.171Z,58.90
2023-05-18T21:33:23.731Z,58.89
2023-05-18T21:34:46.369Z,58.96
2023-05-18T21:36:10.512Z,58.98
2023-05-18T21:37:33.254Z,59.25
2023-05-18T21:39:11.301Z,59.21
2023-05-18T21:40:33.577Z,59.08
2023-05-18T21:41:56.352Z,59.24
2023-05-18T21:43:18.521Z,59.02
2023-05-18T21:44:39.889Z,59.07
2023-05-18T21:46:02.886Z,59.23
2023-05-18T21:47:28.286Z,59.38
2023-05-18T21:48:50.956Z,59.08
2023-05-18T21:50:12.280Z,59.11
2023-05-18T21:51:37.398Z,59.15
2023-05-18T21:52:58.557Z,59.22
2023-05-18T21:54:20.964Z,59.15
2023-05-18T21:55:43.367Z,59.21
2023-05-18T21:57:07.492Z,59.24
2023-05-18T21:58:29.097Z,59.50
2023-05-18T21:59:51.499Z,59.27
2023-05-18T22:01:12.984Z,59.43
2023-05-18T22:02:35.801Z,59.69
2023-05-18T22:03:57.524Z,59.82
2023-05-18T22:05:20.479Z,59.40
2023-05-18T22:06:44.744Z,59.55
2023-05-18T22:08:08.344Z,59.52
2023-05-18T22:09:31.158Z,59.36
2023-05-18T22:10:52.398Z,59.41
2023-05-18T22:12:16.126Z,59.30
2023-05-18T22:13:37.167Z,59.09
2023-05-18T22:14:59.290Z,59.43
2023-05-18T22:16:19.918Z,59.52
2023-05-18T22:17:42.359Z,59.76
2023-05-18T22:19:05.000Z,59.64
2023-05-18T22:20:26.424Z,59.79
2023-05-18T22:22:05.284Z,59.76
2023-05-18T22:23:38.942Z,59.87
2023-05-18T22:25:11.130Z,59.82
2023-05-18T22:26:37.002Z,59.77
2023-05-18T22:28:00.774Z,59.71
2023-05-18T22:29:23.386Z,59.52
2023-05-18T22:30:46.384Z,59.64
2023-05-18T22:32:09.762Z,59.60
2023-05-18T22:33:32.100Z,59.55
2023-05-18T22:34:56.125Z,59.54
2023-05-18T22:36:21.725Z,59.74
2023-05-18T22:37:44.483Z,59.75
2023-05-18T22:39:06.004Z,59.89
2023-05-18T22:40:28.216Z,60.28
2023-05-18T22:41:49.411Z,60.14
2023-05-18T22:43:13.055Z,60.11
2023-05-18T22:44:46.433Z,60.44
2023-05-18T22:46:09.183Z,60.40
2023-05-18T22:47:30.770Z,60.18
2023-05-18T22:48:57.732Z,60.45